createdAt,value
2023-04-16T00:00:54.870Z,100097.20
2023-04-16T00:03:39.267Z,100095.00
2023-04-16T00:06:13.867Z,100094.20
2023-04-16T00:08:48.402Z,100092.20
2023-04-16T00:11:22.539Z,100086.40
2023-04-16T00:13:56.950Z,100084.40
2023-04-16T00:16:31.382Z,100085.80
2023-04-16T00:19:06.009Z,100088.40
2023-04-16T00:21:40.342Z,100088.40
2023-04-16T00:24:15.040Z,100090.80
2023-04-16T00:26:49.137Z,100090.80
2023-04-16T00:29:23.433Z,100089.40
2023-04-16T00:31:57.540Z,100096.20
2023-04-16T00:34:31.672Z,100098.60
2023-04-16T00:37:05.861Z,100098.40
2023-04-16T00:39:40.091Z,100103.20
2023-04-16T00:42:14.266Z,100107.40
2023-04-16T00:44:48.409Z,100107.00
2023-04-16T00:47:25.410Z,100105.60
2023-04-16T00:50:00.915Z,100103.80
2023-04-16T00:52:37.439Z,100107.00
2023-04-16T00:55:15.405Z,100103.80
2023-04-16T00:57:49.685Z,100112.40
2023-04-16T01:00:26.419Z,100115.20
2023-04-16T01:03:02.256Z,100111.20
2023-04-16T01:05:36.711Z,100115.00
2023-04-16T01:08:18.867Z,100115.80
2023-04-16T01:10:53.028Z,100118.80
2023-04-16T01:13:27.273Z,100125.00
2023-04-16T01:16:01.968Z,100126.00
2023-04-16T01:18:36.640Z,100131.80
2023-04-16T01:21:11.196Z,100136.00
2023-04-16T01:23:45.310Z,100137.80
2023-04-16T01:26:19.396Z,100132.00
2023-04-16T01:28:53.560Z,100134.20
2023-04-16T01:31:27.848Z,100133.00
2023-04-16T01:34:10.540Z,100132.80
2023-04-16T01:36:44.754Z,100131.80
2023-04-16T01:39:19.533Z,100134.60
2023-04-16T01:41:53.674Z,100131.80
2023-04-16T01:44:28.109Z,100136.00
2023-04-16T01:47:02.420Z,100133.40
2023-04-16T01:49:37.353Z,100130.80
2023-04-16T01:52:11.426Z,100129.40
2023-04-16T01:54:46.895Z,100132.40
2023-04-16T01:57:21.134Z,100130.40
2023-04-16T01:59:55.296Z,100134.40
2023-04-16T02:02:29.739Z,100142.20
2023-04-16T02:05:04.637Z,100139.00
2023-04-16T02:07:38.783Z,100137.80
2023-04-16T02:10:14.148Z,100139.60
2023-04-16T02:12:48.380Z,100137.00
2023-04-16T02:15:24.052Z,100149.20
2023-04-16T02:17:58.358Z,100143.20
2023-04-16T02:20:32.910Z,100146.80
2023-04-16T02:23:07.402Z,100151.20
2023-04-16T02:25:47.292Z,100160.20
2023-04-16T02:28:21.944Z,100158.40
2023-04-16T02:30:56.067Z,100160.20
2023-04-16T02:33:32.013Z,100163.40
2023-04-16T02:36:11.320Z,100164.00
2023-04-16T02:38:45.414Z,100161.20
2023-04-16T02:41:19.654Z,100160.40
2023-04-16T02:43:53.761Z,100162.80
2023-04-16T02:46:28.210Z,100167.40
2023-04-16T02:49:02.837Z,100174.40
2023-04-16T02:51:36.973Z,100177.20
2023-04-16T02:54:11.189Z,100179.60
2023-04-16T02:56:45.612Z,100180.40
2023-04-16T02:59:19.746Z,100178.40
2023-04-16T03:01:54.218Z,100184.40
2023-04-16T03:04:28.532Z,100183.40
2023-04-16T03:07:02.944Z,100180.80
2023-04-16T03:09:37.242Z,100185.60
2023-04-16T03:12:11.503Z,100190.20
2023-04-16T03:14:46.165Z,100189.60
2023-04-16T03:17:20.390Z,100191.80
2023-04-16T03:19:54.502Z,100196.20
2023-04-16T03:22:28.644Z,100189.20
2023-04-16T03:25:02.675Z,100186.80
2023-04-16T03:27:39.839Z,100197.80
2023-04-16T03:30:16.477Z,100199.00
2023-04-16T03:32:50.957Z,100200.40
2023-04-16T03:35:25.393Z,100206.00
2023-04-16T03:37:59.500Z,100205.60
2023-04-16T03:40:33.697Z,100206.80
2023-04-16T03:43:08.219Z,100210.80
2023-04-16T03:45:48.801Z,100219.20
2023-04-16T03:48:24.091Z,100216.00
2023-04-16T03:50:58.285Z,100215.40
2023-04-16T03:53:32.788Z,100223.20
2023-04-16T03:56:07.800Z,100224.80
2023-04-16T03:58:41.988Z,100226.00
2023-04-16T04:01:16.092Z,100223.80
2023-04-16T04:03:50.464Z,100230.60
2023-04-16T04:06:24.925Z,100231.60
2023-04-16T04:08:59.694Z,100236.20
2023-04-16T04:11:34.280Z,100242.00
2023-04-16T04:14:08.682Z,100243.00
2023-04-16T04:16:43.132Z,100243.80
2023-04-16T04:19:17.370Z,100243.00
2023-04-16T04:21:51.770Z,100246.20
2023-04-16T04:24:25.987Z,100246.80
2023-04-16T04:27:01.829Z,100245.80
2023-04-16T04:29:36.110Z,100248.60
2023-04-16T04:32:10.371Z,100247.60
2023-04-16T04:34:44.609Z,100254.80
2023-04-16T04:37:18.905Z,100258.20
2023-04-16T04:39:53.240Z,100256.00
2023-04-16T04:42:27.708Z,100258.60
2023-04-16T04:45:02.124Z,100261.20
2023-04-16T04:47:37.596Z,100259.00
2023-04-16T04:50:13.849Z,100262.60
2023-04-16T04:52:48.553Z,100263.40
2023-04-16T04:55:23.255Z,100268.60
2023-04-16T04:57:57.982Z,100261.60
2023-04-16T05:00:33.932Z,100258.00
2023-04-16T05:03:13.594Z,100257.40
2023-04-16T05:05:48.098Z,100262.00
2023-04-16T05:08:24.737Z,100262.40
2023-04-16T05:25:55.196Z,100270.20
2023-04-16T05:28:29.673Z,100270.20
2023-04-16T05:31:03.957Z,100279.00
2023-04-16T05:33:38.384Z,100279.80
2023-04-16T05:36:14.197Z,100283.60
2023-04-16T05:38:48.414Z,100285.00
2023-04-16T05:41:22.854Z,100289.40
2023-04-16T05:43:57.248Z,100296.60
2023-04-16T05:46:32.897Z,100293.00
2023-04-16T05:49:07.921Z,100291.00
2023-04-16T05:51:42.875Z,100296.20
2023-04-16T05:54:17.343Z,100298.40
2023-04-16T05:56:51.672Z,100294.80
2023-04-16T05:59:26.317Z,100303.40
2023-04-16T06:02:00.743Z,100302.60
2023-04-16T06:04:35.914Z,100303.80
2023-04-16T06:07:10.175Z,100306.00
2023-04-16T06:09:44.455Z,100304.60
2023-04-16T06:12:18.719Z,100309.00
2023-04-16T06:14:53.214Z,100307.40
2023-04-16T06:17:27.781Z,100311.20
2023-04-16T06:20:02.163Z,100308.40
2023-04-16T06:22:36.758Z,100306.60
2023-04-16T06:25:12.921Z,100311.20
2023-04-16T06:27:47.177Z,100311.80
2023-04-16T06:30:22.253Z,100311.60
2023-04-16T06:32:56.769Z,100307.80
2023-04-16T06:35:31.096Z,100320.40
2023-04-16T06:38:05.580Z,100316.80
2023-04-16T06:40:40.309Z,100315.80
2023-04-16T06:43:15.896Z,100315.60
2023-04-16T06:45:50.114Z,100311.20
2023-04-16T06:48:24.429Z,100316.40
2023-04-16T06:51:00.346Z,100321.00
2023-04-16T06:53:34.677Z,100320.60
2023-04-16T06:56:09.953Z,100328.60
2023-04-16T06:58:44.275Z,100330.00
2023-04-16T07:01:18.801Z,100327.80
2023-04-16T07:03:53.487Z,100324.20
2023-04-16T07:06:28.368Z,100324.00
2023-04-16T07:09:02.544Z,100324.40
2023-04-16T07:11:37.364Z,100332.00
2023-04-16T07:14:12.113Z,100339.40
2023-04-16T07:16:46.437Z,100349.20
2023-04-16T07:19:21.127Z,100351.40
2023-04-16T07:21:55.665Z,100353.80
2023-04-16T07:24:30.186Z,100358.00
2023-04-16T07:27:05.137Z,100366.20
2023-04-16T07:29:39.280Z,100363.20
2023-04-16T07:32:15.459Z,100366.00
2023-04-16T07:34:50.169Z,100363.20
2023-04-16T07:37:24.645Z,100365.40
2023-04-16T07:40:00.762Z,100369.60
2023-04-16T07:42:35.155Z,100371.80
2023-04-16T07:45:11.577Z,100373.60
2023-04-16T07:47:46.687Z,100379.20
2023-04-16T07:50:21.281Z,100376.80
2023-04-16T07:52:55.581Z,100380.60
2023-04-16T07:55:30.018Z,100378.40
2023-04-16T07:58:04.498Z,100375.60
2023-04-16T08:00:39.704Z,100383.20
2023-04-16T08:03:16.618Z,100379.80
2023-04-16T08:05:51.300Z,100383.60
2023-04-16T08:08:25.872Z,100375.20
2023-04-16T08:11:00.551Z,100379.60
2023-04-16T08:13:34.873Z,100379.80
2023-04-16T08:16:10.146Z,100380.40
2023-04-16T08:18:44.979Z,100378.60
2023-04-16T08:21:19.350Z,100383.00
2023-04-16T08:23:53.876Z,100381.80
2023-04-16T08:26:28.620Z,100372.80
2023-04-16T08:29:03.302Z,100375.80
2023-04-16T08:31:38.259Z,100376.60
2023-04-16T08:34:12.739Z,100375.20
2023-04-16T08:36:47.349Z,100369.40
2023-04-16T08:39:21.791Z,100373.20
2023-04-16T08:59:12.510Z,100385.40
2023-04-16T09:01:49.414Z,100387.60
2023-04-16T09:04:27.799Z,100387.60
2023-04-16T09:07:03.946Z,100392.20
2023-04-16T09:09:39.427Z,100388.00
2023-04-16T09:12:15.356Z,100386.40
2023-04-16T09:14:53.373Z,100392.00
2023-04-16T09:17:27.750Z,100395.40
2023-04-16T09:20:02.002Z,100399.80
2023-04-16T09:22:36.439Z,100398.40
2023-04-16T09:25:14.234Z,100399.80
2023-04-16T09:27:50.997Z,100402.80
2023-04-16T09:30:28.473Z,100398.60
2023-04-16T09:33:23.451Z,100404.00
2023-04-16T09:35:57.972Z,100401.80
2023-04-16T09:38:51.566Z,100401.20
2023-04-16T09:41:31.362Z,100404.60
2023-04-16T09:44:07.670Z,100401.20
2023-04-16T09:46:45.536Z,100406.60
2023-04-16T09:49:21.368Z,100413.00
2023-04-16T09:52:00.068Z,100423.00
2023-04-16T09:54:34.758Z,100421.80
2023-04-16T09:57:10.778Z,100423.40
2023-04-16T09:59:45.015Z,100423.00
2023-04-16T10:02:20.539Z,100422.80
2023-04-16T10:04:57.617Z,100430.00
2023-04-16T10:07:37.254Z,100430.60
2023-04-16T10:10:13.806Z,100424.80
2023-04-16T10:12:48.076Z,100425.20
2023-04-16T10:15:23.223Z,100419.80
2023-04-16T10:18:00.411Z,100414.00
2023-04-16T10:20:34.914Z,100410.20
2023-04-16T10:23:09.645Z,100408.60
2023-04-16T10:25:46.196Z,100402.40
2023-04-16T10:28:21.204Z,100400.00
2023-04-16T10:30:57.508Z,100398.40
2023-04-16T10:33:34.502Z,100394.80
2023-04-16T10:36:16.391Z,100396.60
2023-04-16T10:38:53.634Z,100401.80
2023-04-16T10:41:28.801Z,100407.40
2023-04-16T10:44:11.810Z,100412.80
2023-04-16T10:46:49.540Z,100413.80
2023-04-16T10:49:27.254Z,100419.20
2023-04-16T10:52:03.851Z,100425.40
2023-04-16T10:54:40.725Z,100423.80
2023-04-16T10:57:19.717Z,100420.20
2023-04-16T10:59:56.390Z,100421.40
2023-04-16T11:02:33.944Z,100419.60
2023-04-16T11:05:09.775Z,100418.00
2023-04-16T11:07:52.318Z,100419.20
2023-04-16T11:10:26.582Z,100420.80
2023-04-16T11:13:01.685Z,100419.80
2023-04-16T11:15:36.399Z,100417.60
2023-04-16T11:18:10.935Z,100420.40
2023-04-16T11:20:46.491Z,100419.20
2023-04-16T11:23:20.714Z,100417.40
2023-04-16T11:25:57.933Z,100416.60
2023-04-16T11:28:39.667Z,100420.80
2023-04-16T11:31:17.242Z,100427.60
2023-04-16T11:33:51.616Z,100422.00
2023-04-16T11:36:27.814Z,100424.80
2023-04-16T11:39:07.965Z,100430.80
2023-04-16T11:41:50.244Z,100428.80
2023-04-16T11:44:27.462Z,100427.40
2023-04-16T11:47:07.487Z,100420.80
2023-04-16T11:49:41.945Z,100416.60
2023-04-16T11:52:16.475Z,100410.20
2023-04-16T11:54:55.182Z,100410.80
2023-04-16T11:57:34.350Z,100407.80
2023-04-16T12:00:13.665Z,100412.80
2023-04-16T12:02:51.710Z,100412.00
2023-04-16T12:05:35.141Z,100414.40
2023-04-16T12:08:11.922Z,100416.40
2023-04-16T12:10:59.736Z,100419.60
2023-04-16T12:13:40.007Z,100427.80
2023-04-16T12:16:23.711Z,100422.20
2023-04-16T12:19:12.117Z,100415.60
2023-04-16T12:21:48.848Z,100414.60
2023-04-16T12:24:27.549Z,100412.20
2023-04-16T12:27:03.407Z,100410.80
2023-04-16T12:29:38.931Z,100411.40
2023-04-16T12:32:25.800Z,100411.20
2023-04-16T12:35:00.006Z,100408.60
2023-04-16T12:37:35.503Z,100412.60
2023-04-16T12:40:12.735Z,100410.20
2023-04-16T12:42:46.886Z,100414.60
2023-04-16T12:45:21.402Z,100418.00
2023-04-16T12:47:55.973Z,100410.20
2023-04-16T12:50:30.468Z,100407.40
2023-04-16T12:53:04.886Z,100412.00
2023-04-16T12:55:42.531Z,100411.40
2023-04-16T12:58:16.870Z,100414.40
2023-04-16T13:00:51.241Z,100409.80
2023-04-16T13:03:25.768Z,100406.20
2023-04-16T13:06:02.368Z,100408.00
2023-04-16T13:08:37.713Z,100406.20
2023-04-16T13:11:13.371Z,100401.40
2023-04-16T13:13:47.990Z,100398.40
2023-04-16T13:16:22.729Z,100398.20
2023-04-16T13:18:57.535Z,100401.40
2023-04-16T13:21:32.162Z,100404.80
2023-04-16T13:24:07.316Z,100401.20
2023-04-16T13:26:42.639Z,100408.60
2023-04-16T13:29:33.649Z,100415.20
2023-04-16T13:32:09.258Z,100411.80
2023-04-16T13:34:43.764Z,100411.40
2023-04-16T13:37:18.100Z,100411.60
2023-04-16T13:39:52.468Z,100404.20
2023-04-16T13:42:26.932Z,100400.20
2023-04-16T13:45:01.370Z,100399.40
2023-04-16T13:47:36.692Z,100401.60
2023-04-16T13:50:12.973Z,100401.20
2023-04-16T13:52:47.148Z,100401.80
2023-04-16T13:55:21.727Z,100403.80
2023-04-16T13:57:56.492Z,100399.60
2023-04-16T14:00:31.855Z,100395.60
2023-04-16T14:03:07.032Z,100396.60
2023-04-16T14:05:42.195Z,100392.20
2023-04-16T14:08:17.120Z,100387.80
2023-04-16T14:10:51.782Z,100385.60
2023-04-16T14:13:27.111Z,100394.00
2023-04-16T14:16:01.535Z,100397.20
2023-04-16T14:18:36.024Z,100397.20
2023-04-16T14:21:11.681Z,100404.60
2023-04-16T14:23:45.898Z,100399.40
2023-04-16T14:26:20.128Z,100396.00
2023-04-16T14:28:55.758Z,100393.20
2023-04-16T14:31:30.077Z,100393.20
2023-04-16T14:34:05.234Z,100394.60
2023-04-16T14:36:40.077Z,100396.00
2023-04-16T14:39:14.376Z,100391.20
2023-04-16T14:41:48.765Z,100392.40
2023-04-16T14:44:23.046Z,100391.60
2023-04-16T14:46:57.649Z,100397.00
2023-04-16T14:49:32.504Z,100398.00
2023-04-16T14:52:07.272Z,100398.40
2023-04-16T14:54:41.657Z,100401.20
2023-04-16T14:57:17.215Z,100403.20
2023-04-16T14:59:51.614Z,100399.40
2023-04-16T15:02:27.974Z,100392.20
2023-04-16T15:05:02.994Z,100394.80
2023-04-16T15:07:38.091Z,100394.20
2023-04-16T15:10:16.545Z,100398.60
2023-04-16T15:12:51.002Z,100396.60
2023-04-16T15:15:25.343Z,100407.20
2023-04-16T15:18:00.500Z,100401.60
2023-04-16T15:20:36.710Z,100402.80
2023-04-16T15:23:11.439Z,100403.20
2023-04-16T15:25:46.636Z,100411.20
2023-04-16T15:28:20.917Z,100410.40
2023-04-16T15:30:55.267Z,100415.20
2023-04-16T15:33:29.493Z,100419.40
2023-04-16T15:36:03.970Z,100417.00
2023-04-16T15:38:38.432Z,100417.80
2023-04-16T15:41:14.289Z,100419.80
2023-04-16T15:43:48.609Z,100419.00
2023-04-16T15:46:22.999Z,100412.20
2023-04-16T15:48:57.651Z,100420.60
2023-04-16T15:51:34.617Z,100414.20
2023-04-16T15:54:09.981Z,100418.40
2023-04-16T15:56:44.524Z,100421.20
2023-04-16T15:59:19.554Z,100417.80
2023-04-16T16:01:54.049Z,100421.60
2023-04-16T16:04:28.771Z,100427.00
2023-04-16T16:07:04.251Z,100425.00
2023-04-16T16:09:38.544Z,100426.00
2023-04-16T16:12:13.546Z,100423.40
2023-04-16T16:14:49.558Z,100425.60
2023-04-16T16:17:23.901Z,100426.00
2023-04-16T16:20:00.436Z,100428.80
2023-04-16T16:22:36.409Z,100429.20
2023-04-16T16:25:12.385Z,100441.40
2023-04-16T16:27:47.070Z,100441.40
2023-04-16T16:30:21.775Z,100449.00
2023-04-16T16:32:56.790Z,100454.20
2023-04-16T16:35:31.245Z,100463.00
2023-04-16T16:38:05.548Z,100458.20
2023-04-16T16:40:40.404Z,100469.80
2023-04-16T16:43:14.941Z,100473.20
2023-04-16T16:45:49.208Z,100480.80
2023-04-16T16:48:23.470Z,100481.00
2023-04-16T16:50:57.770Z,100487.00
2023-04-16T16:53:32.323Z,100482.40
2023-04-16T16:56:07.031Z,100490.80
2023-04-16T16:58:41.839Z,100491.20
2023-04-16T17:01:16.092Z,100494.20
2023-04-16T17:03:50.714Z,100499.40
2023-04-16T17:06:27.364Z,100504.60
2023-04-16T17:09:01.932Z,100509.80
2023-04-16T17:11:36.303Z,100508.00
2023-04-16T17:14:11.605Z,100513.80
2023-04-16T17:16:46.624Z,100518.40
2023-04-16T17:19:21.142Z,100521.20
2023-04-16T17:21:55.846Z,100526.40
2023-04-16T17:24:30.166Z,100530.20
2023-04-16T17:27:04.583Z,100537.00
2023-04-16T17:29:38.805Z,100541.00
2023-04-16T17:32:13.181Z,100544.80
2023-04-16T17:34:47.512Z,100551.40
2023-04-16T17:37:22.084Z,100555.80
2023-04-16T17:39:56.602Z,100554.00
2023-04-16T17:42:31.420Z,100551.40
2023-04-16T17:45:07.322Z,100565.20
2023-04-16T17:47:42.827Z,100569.20
2023-04-16T17:50:18.279Z,100575.00
2023-04-16T17:52:52.953Z,100574.40
2023-04-16T17:55:27.565Z,100580.40
2023-04-16T17:58:03.789Z,100582.40
2023-04-16T18:00:38.725Z,100582.40
2023-04-16T18:03:14.212Z,100585.40
2023-04-16T18:05:48.744Z,100587.80
2023-04-16T18:08:24.203Z,100588.80
2023-04-16T18:10:58.578Z,100592.80
2023-04-16T18:13:33.004Z,100602.80
2023-04-16T18:16:08.193Z,100606.20
2023-04-16T18:18:42.617Z,100609.60
2023-04-16T18:21:16.951Z,100620.00
2023-04-16T18:23:51.541Z,100617.80
2023-04-16T18:26:25.875Z,100630.00
2023-04-16T18:29:00.393Z,100634.40
2023-04-16T18:31:34.814Z,100639.60
2023-04-16T18:34:09.548Z,100633.80
2023-04-16T18:36:43.892Z,100642.80
2023-04-16T18:39:18.375Z,100641.20
2023-04-16T18:41:52.776Z,100646.40
2023-04-16T18:44:27.398Z,100646.80
2023-04-16T18:47:01.827Z,100648.60
2023-04-16T18:49:36.332Z,100646.40
2023-04-16T18:52:10.792Z,100648.80
2023-04-16T18:54:45.330Z,100649.80
2023-04-16T18:57:19.672Z,100655.20
2023-04-16T18:59:54.478Z,100656.20
2023-04-16T19:02:30.285Z,100659.40
2023-04-16T19:05:05.319Z,100664.60
2023-04-16T19:07:40.712Z,100672.20
2023-04-16T19:10:16.981Z,100671.60
2023-04-16T19:12:52.830Z,100672.80
2023-04-16T19:15:30.052Z,100681.40
2023-04-16T19:18:06.418Z,100684.80
2023-04-16T19:20:41.721Z,100686.60
2023-04-16T19:23:17.180Z,100690.20
2023-04-16T19:25:53.815Z,100685.80
2023-04-16T19:28:28.900Z,100685.00
2023-04-16T19:31:03.812Z,100689.40
2023-04-16T19:33:39.015Z,100690.00
2023-04-16T19:36:13.816Z,100690.20
2023-04-16T19:38:48.040Z,100688.60
2023-04-16T19:41:23.882Z,100691.40
2023-04-16T19:43:58.986Z,100693.80
2023-04-16T19:46:33.546Z,100694.40
2023-04-16T19:49:08.117Z,100692.00
2023-04-16T19:51:43.791Z,100690.60
2023-04-16T19:54:18.333Z,100688.00
2023-04-16T19:56:53.607Z,100690.60
2023-04-16T19:59:29.488Z,100692.20
2023-04-16T20:02:03.892Z,100694.00
2023-04-16T20:04:38.898Z,100691.60
2023-04-16T20:07:13.443Z,100694.80
2023-04-16T20:09:47.949Z,100695.00
2023-04-16T20:12:22.495Z,100694.80
2023-04-16T20:14:56.955Z,100690.40
2023-04-16T20:17:31.234Z,100692.00
2023-04-16T20:20:10.060Z,100691.60
2023-04-16T20:22:45.076Z,100694.40
2023-04-16T20:25:20.721Z,100695.20
2023-04-16T20:27:55.001Z,100702.80
2023-04-16T20:30:31.174Z,100702.80
2023-04-16T20:33:05.559Z,100705.00
2023-04-16T20:35:39.928Z,100703.20
2023-04-16T20:38:14.166Z,100706.00
2023-04-16T20:40:49.023Z,100708.60
2023-04-16T20:43:26.199Z,100705.40
2023-04-16T20:46:03.244Z,100709.00
2023-04-16T20:48:46.203Z,100702.20
2023-04-16T20:51:21.747Z,100707.00
2023-04-16T20:53:55.967Z,100711.80
2023-04-16T20:56:30.259Z,100707.80
2023-04-16T20:59:09.937Z,100709.80
2023-04-16T21:01:53.444Z,100709.60
2023-04-16T21:04:27.906Z,100708.20
2023-04-16T21:07:03.340Z,100715.20
2023-04-16T21:09:37.814Z,100710.00
2023-04-16T21:12:12.637Z,100715.60
2023-04-16T21:14:47.227Z,100718.40
2023-04-16T21:17:21.779Z,100718.40
2023-04-16T21:19:56.085Z,100717.00
2023-04-16T21:22:30.547Z,100711.80
2023-04-16T21:25:05.235Z,100717.40
2023-04-16T21:27:40.215Z,100711.00
2023-04-16T21:30:18.257Z,100715.80
2023-04-16T21:32:52.752Z,100717.60
2023-04-16T21:35:27.293Z,100713.20
2023-04-16T21:38:01.823Z,100712.40
2023-04-16T21:40:36.366Z,100711.80
2023-04-16T21:43:10.851Z,100704.80
2023-04-16T21:45:46.569Z,100706.20
2023-04-16T21:48:21.234Z,100704.20
2023-04-16T21:51:06.705Z,100702.60
2023-04-16T21:53:42.441Z,100700.20
2023-04-16T21:56:16.689Z,100700.40
2023-04-16T21:58:50.840Z,100699.80
2023-04-16T22:01:25.124Z,100699.00
2023-04-16T22:03:59.560Z,100695.60
2023-04-16T22:06:33.838Z,100696.80
2023-04-16T22:09:08.189Z,100698.60
2023-04-16T22:11:46.614Z,100693.80
2023-04-16T22:14:20.687Z,100694.60
2023-04-16T22:16:55.146Z,100693.20
2023-04-16T22:19:29.592Z,100693.40
2023-04-16T22:22:03.753Z,100696.20
2023-04-16T22:24:37.799Z,100694.20
2023-04-16T22:27:11.899Z,100689.60
2023-04-16T22:29:46.540Z,100695.80
2023-04-16T22:32:21.072Z,100690.20
2023-04-16T22:34:55.326Z,100691.80
2023-04-16T22:37:29.478Z,100689.80
2023-04-16T22:40:07.194Z,100689.00
2023-04-16T22:42:41.530Z,100692.20
2023-04-16T22:45:16.646Z,100690.20
2023-04-16T22:47:50.775Z,100692.00
2023-04-16T22:50:25.141Z,100690.40
2023-04-16T22:52:59.403Z,100691.00
2023-04-16T22:55:33.752Z,100690.00
2023-04-16T22:58:07.869Z,100693.20
2023-04-16T23:00:42.897Z,100690.00
2023-04-16T23:03:17.300Z,100683.20
2023-04-16T23:05:51.604Z,100687.60
2023-04-16T23:08:25.716Z,100685.40
2023-04-16T23:11:00.097Z,100689.00
2023-04-16T23:13:34.313Z,100687.20
2023-04-16T23:16:10.105Z,100693.00
2023-04-16T23:18:44.439Z,100691.80
2023-04-16T23:21:18.583Z,100695.00
2023-04-16T23:23:52.928Z,100697.60
2023-04-16T23:26:27.004Z,100697.80
2023-04-16T23:29:01.791Z,100696.40
2023-04-16T23:31:36.219Z,100696.60
2023-04-16T23:34:10.605Z,100695.20
2023-04-16T23:36:44.797Z,100692.60
2023-04-16T23:39:18.891Z,100690.00
2023-04-16T23:41:53.102Z,100696.40
2023-04-16T23:44:27.330Z,100694.40
2023-04-16T23:47:01.444Z,100692.00
2023-04-16T23:49:35.633Z,100692.80
2023-04-16T23:52:10.373Z,100691.00
2023-04-16T23:54:44.607Z,100693.40
2023-04-16T23:57:18.846Z,100696.00
2023-04-16T23:59:52.947Z,100691.20
